Terminal Aerodrome Forecast
Issued by NWS

Home | Current Version | Previous Version | Text Only | Print | Product List | Glossary On
Versions: 1 2 3 4 5 6 7 8 9 10 11 12 13 14 15 16
000
FTUS43 KIND 012300
TAFBMG
TAF
KBMG 012325Z 0200/0224 29005KT 5SM -SHSN BR OVC008
     FM020800 32006KT P6SM BKN020 OVC120
     FM021100 35005KT P6SM SCT025 BKN150
     FM021600 06005KT P6SM SCT025 BKN150
     FM022300 08004KT P6SM OVC100
      AMD LTD TO CLD VIS AND WIND 0202/0214=

USA.gov is the U.S. government's official web portal to all federal, state and local government web resources and services.